Greensboro, NC (27405)

1:10 PM EDT on September 30, 2016 (GMT -0400)
Bell Orchard Drive | | Change Station

Elev 876 ft 36.13 °N, 79.80 °W | Updated 10 seconds ago

Mostly Cloudy
Mostly Cloudy
79.1 °F
Feels Like 82 °F
N
6.0
Wind Variable Wind from South
Gusts 12.5 mph

Today
High -- | Low -- °F
--% Chance of Precip.
Yesterday
High -- | Low -- °F
Precip. -- in
Pressure 29.97 in
Visibility 10.0 miles
Clouds Scattered Clouds 2600 ft
Mostly Cloudy 3500 ft
Heat Index 82 °F
Dew Point 72 °F
Humidity 78%
Rainfall 0.00 in
Snow Depth Not available.
7:13 AM 7:03 PM
Waning Crescent, 0% visible
METAR KGSO 301654Z 18014G19KT 10SM SCT026 BKN035TCU 28/18 A3000 RMK AO2 SLP147 TCU ALQDS T02780183
Pressure 29.97 in
Visibility 10.0 miles
Clouds Scattered Clouds 2600 ft
Mostly Cloudy 3500 ft
Heat Index 82 °F
Dew Point 72 °F
Humidity 78%
Rainfall 0.00 in
Snow Depth Not available.
7:13 AM 7:03 PM
Waning Crescent, 0% visible
METAR KGSO 301654Z 18014G19KT 10SM SCT026 BKN035TCU 28/18 A3000 RMK AO2 SLP147 TCU ALQDS T02780183

10-Day Weather Forecast

Almanac

Astronomy

Sep. 30, 2016 Rise Set
Actual Time
Civil Twilight
Nautical Twilight
Astronomical Twilight
Moon
Length of Visible Light
Length of Day
Tomorrow will be .
, % of the Moon is Illuminated

Today's Extremes

State Highs State Lows

Community

WunderPhotos

Upload Photos

1,942,752 photos uploaded!

WunderBlog® & News

Nearby

Air Quality

  Air Quality AQ Index Pollutant
Not available.

Snow Depth

Station Depth Elevation

Earthquake Activity

City Distance Mag. Time & Date
Minimum magnitude displayed is 2.5.

Coastal Water Temperatures

Place Temperature

Stations

Nearby Weather Stations

Station Location Temp. Windchill Dew Point Humidity Wind Precip. Elev Updated Type
                   

Watches & Warnings

There are currently no watches in effect.